sensor_id;sensor_type;location;lat;lon;timestamp;temperature;humidity
11083;DHT22;5595;50.186;8.468;2022-09-12T00:01:59;13.00;99.90
11083;DHT22;5595;50.186;8.468;2022-09-12T00:04:26;13.00;99.90
11083;DHT22;5595;50.186;8.468;2022-09-12T00:06:54;13.00;99.90
11083;DHT22;5595;50.186;8.468;2022-09-12T00:09:21;13.00;99.90
11083;DHT22;5595;50.186;8.468;2022-09-12T00:11:48;13.00;99.90
11083;DHT22;5595;50.186;8.468;2022-09-12T00:14:17;13.00;99.90
11083;DHT22;5595;50.186;8.468;2022-09-12T00:16:44;13.00;99.90
11083;DHT22;5595;50.186;8.468;2022-09-12T00:19:11;13.00;99.90
11083;DHT22;5595;50.186;8.468;2022-09-12T00:21:39;13.00;99.90
11083;DHT22;5595;50.186;8.468;2022-09-12T00:24:08;13.00;99.90
11083;DHT22;5595;50.186;8.468;2022-09-12T00:26:35;12.90;99.90
11083;DHT22;5595;50.186;8.468;2022-09-12T00:29:02;12.90;99.90
11083;DHT22;5595;50.186;8.468;2022-09-12T00:31:28;12.90;99.90
11083;DHT22;5595;50.186;8.468;2022-09-12T00:33:57;12.90;99.90
11083;DHT22;5595;50.186;8.468;2022-09-12T00:36:26;12.90;99.90
11083;DHT22;5595;50.186;8.468;2022-09-12T00:38:56;12.90;99.90
11083;DHT22;5595;50.186;8.468;2022-09-12T00:41:25;12.90;99.90
11083;DHT22;5595;50.186;8.468;2022-09-12T00:43:55;12.90;99.90
11083;DHT22;5595;50.186;8.468;2022-09-12T00:46:30;12.90;99.90
11083;DHT22;5595;50.186;8.468;2022-09-12T00:49:00;12.90;99.90
11083;DHT22;5595;50.186;8.468;2022-09-12T00:51:30;13.00;99.90
11083;DHT22;5595;50.186;8.468;2022-09-12T00:53:59;12.90;99.90
11083;DHT22;5595;50.186;8.468;2022-09-12T00:56:30;12.90;99.90
11083;DHT22;5595;50.186;8.468;2022-09-12T00:59:00;12.80;99.90
11083;DHT22;5595;50.186;8.468;2022-09-12T01:01:28;12.80;99.90
11083;DHT22;5595;50.186;8.468;2022-09-12T01:03:55;12.80;99.90
11083;DHT22;5595;50.186;8.468;2022-09-12T01:06:26;12.80;99.90
11083;DHT22;5595;50.186;8.468;2022-09-12T01:08:57;12.80;99.90
11083;DHT22;5595;50.186;8.468;2022-09-12T01:11:30;12.80;99.90
11083;DHT22;5595;50.186;8.468;2022-09-12T01:13:57;12.70;99.90
11083;DHT22;5595;50.186;8.468;2022-09-12T01:16:23;12.70;99.90
11083;DHT22;5595;50.186;8.468;2022-09-12T01:18:59;12.70;99.90
11083;DHT22;5595;50.186;8.468;2022-09-12T01:21:35;12.80;99.90
11083;DHT22;5595;50.186;8.468;2022-09-12T01:24:41;12.70;99.90
11083;DHT22;5595;50.186;8.468;2022-09-12T01:27:46;12.70;99.90
11083;DHT22;5595;50.186;8.468;2022-09-12T01:30:27;12.70;99.90
11083;DHT22;5595;50.186;8.468;2022-09-12T01:33:15;12.70;99.90
11083;DHT22;5595;50.186;8.468;2022-09-12T01:35:52;12.70;99.90
11083;DHT22;5595;50.186;8.468;2022-09-12T01:38:30;12.70;99.90
11083;DHT22;5595;50.186;8.468;2022-09-12T01:41:09;12.70;99.90
11083;DHT22;5595;50.186;8.468;2022-09-12T01:43:43;12.70;99.90
11083;DHT22;5595;50.186;8.468;2022-09-12T01:46:15;12.70;99.90
11083;DHT22;5595;50.186;8.468;2022-09-12T01:48:45;12.70;99.90
11083;DHT22;5595;50.186;8.468;2022-09-12T01:51:17;12.70;99.90
11083;DHT22;5595;50.186;8.468;2022-09-12T01:53:47;12.70;99.90
11083;DHT22;5595;50.186;8.468;2022-09-12T01:56:19;12.70;99.90
11083;DHT22;5595;50.186;8.468;2022-09-12T01:58:51;12.70;99.90
11083;DHT22;5595;50.186;8.468;2022-09-12T02:01:23;12.70;99.90
11083;DHT22;5595;50.186;8.468;2022-09-12T02:03:57;12.70;99.90
11083;DHT22;5595;50.186;8.468;2022-09-12T02:06:28;12.60;99.90
11083;DHT22;5595;50.186;8.468;2022-09-12T02:08:58;12.60;99.90
11083;DHT22;5595;50.186;8.468;2022-09-12T02:11:28;12.60;99.90
11083;DHT22;5595;50.186;8.468;2022-09-12T02:14:02;12.60;99.90
11083;DHT22;5595;50.186;8.468;2022-09-12T02:16:35;12.50;99.90
11083;DHT22;5595;50.186;8.468;2022-09-12T02:19:06;12.60;99.90
11083;DHT22;5595;50.186;8.468;2022-09-12T02:21:35;12.50;99.90
11083;DHT22;5595;50.186;8.468;2022-09-12T02:24:04;12.50;99.90
11083;DHT22;5595;50.186;8.468;2022-09-12T02:26:36;12.60;99.90
11083;DHT22;5595;50.186;8.468;2022-09-12T02:29:06;12.60;99.90
11083;DHT22;5595;50.186;8.468;2022-09-12T02:31:41;12.60;99.90
11083;DHT22;5595;50.186;8.468;2022-09-12T02:34:21;12.60;99.90
11083;DHT22;5595;50.186;8.468;2022-09-12T02:37:01;12.60;99.90
11083;DHT22;5595;50.186;8.468;2022-09-12T02:39:28;12.50;99.90
11083;DHT22;5595;50.186;8.468;2022-09-12T02:41:57;12.50;99.90
11083;DHT22;5595;50.186;8.468;2022-09-12T02:44:26;12.50;99.90
11083;DHT22;5595;50.186;8.468;2022-09-12T02:46:57;12.50;99.90
11083;DHT22;5595;50.186;8.468;2022-09-12T02:49:26;12.50;99.90
11083;DHT22;5595;50.186;8.468;2022-09-12T02:51:53;12.50;99.90
11083;DHT22;5595;50.186;8.468;2022-09-12T02:54:21;12.50;99.90
11083;DHT22;5595;50.186;8.468;2022-09-12T02:56:47;12.50;99.90
11083;DHT22;5595;50.186;8.468;2022-09-12T02:59:18;12.50;99.90
11083;DHT22;5595;50.186;8.468;2022-09-12T03:01:57;12.50;99.90
11083;DHT22;5595;50.186;8.468;2022-09-12T03:04:39;12.40;99.90
11083;DHT22;5595;50.186;8.468;2022-09-12T03:07:14;12.40;99.90
11083;DHT22;5595;50.186;8.468;2022-09-12T03:09:45;12.40;99.90
11083;DHT22;5595;50.186;8.468;2022-09-12T03:12:25;12.40;99.90
11083;DHT22;5595;50.186;8.468;2022-09-12T03:15:04;12.40;99.90
11083;DHT22;5595;50.186;8.468;2022-09-12T03:17:42;12.40;99.90
11083;DHT22;5595;50.186;8.468;2022-09-12T03:20:12;12.40;99.90
11083;DHT22;5595;50.186;8.468;2022-09-12T03:22:50;12.40;99.90
11083;DHT22;5595;50.186;8.468;2022-09-12T03:25:20;12.40;99.90
11083;DHT22;5595;50.186;8.468;2022-09-12T03:27:54;12.30;99.90
11083;DHT22;5595;50.186;8.468;2022-09-12T03:30:21;12.30;99.90
11083;DHT22;5595;50.186;8.468;2022-09-12T03:32:51;12.40;99.90
11083;DHT22;5595;50.186;8.468;2022-09-12T03:35:22;12.30;99.90
11083;DHT22;5595;50.186;8.468;2022-09-12T03:37:50;12.30;99.90
11083;DHT22;5595;50.186;8.468;2022-09-12T03:40:18;12.30;99.90
11083;DHT22;5595;50.186;8.468;2022-09-12T03:42:45;12.20;99.90
11083;DHT22;5595;50.186;8.468;2022-09-12T03:45:11;12.20;99.90
11083;DHT22;5595;50.186;8.468;2022-09-12T03:47:38;12.20;99.90
11083;DHT22;5595;50.186;8.468;2022-09-12T03:50:07;12.20;99.90
11083;DHT22;5595;50.186;8.468;2022-09-12T03:52:34;12.10;99.90
11083;DHT22;5595;50.186;8.468;2022-09-12T03:55:01;12.10;99.90
11083;DHT22;5595;50.186;8.468;2022-09-12T03:57:28;12.10;99.90
11083;DHT22;5595;50.186;8.468;2022-09-12T03:59:55;12.10;99.90
11083;DHT22;5595;50.186;8.468;2022-09-12T04:02:22;12.10;99.90
11083;DHT22;5595;50.186;8.468;2022-09-12T04:04:48;12.10;99.90
11083;DHT22;5595;50.186;8.468;2022-09-12T04:07:17;12.10;99.90
11083;DHT22;5595;50.186;8.468;2022-09-12T04:09:43;12.10;99.90
11083;DHT22;5595;50.186;8.468;2022-09-12T04:12:11;12.10;99.90
11083;DHT22;5595;50.186;8.468;2022-09-12T04:14:38;12.10;99.90
11083;DHT22;5595;50.186;8.468;2022-09-12T04:17:05;12.00;99.90
11083;DHT22;5595;50.186;8.468;2022-09-12T04:19:32;12.10;99.90
11083;DHT22;5595;50.186;8.468;2022-09-12T04:21:59;12.10;99.90
11083;DHT22;5595;50.186;8.468;2022-09-12T04:24:27;12.10;99.90
11083;DHT22;5595;50.186;8.468;2022-09-12T04:26:54;12.00;99.90
11083;DHT22;5595;50.186;8.468;2022-09-12T04:29:21;12.00;99.90
11083;DHT22;5595;50.186;8.468;2022-09-12T04:31:47;12.00;99.90
11083;DHT22;5595;50.186;8.468;2022-09-12T04:34:14;12.00;99.90
11083;DHT22;5595;50.186;8.468;2022-09-12T04:36:42;12.00;99.90
11083;DHT22;5595;50.186;8.468;2022-09-12T04:39:09;12.00;99.90
11083;DHT22;5595;50.186;8.468;2022-09-12T04:41:39;12.00;99.90
11083;DHT22;5595;50.186;8.468;2022-09-12T04:44:09;12.00;99.90
11083;DHT22;5595;50.186;8.468;2022-09-12T04:46:38;12.00;99.90
11083;DHT22;5595;50.186;8.468;2022-09-12T04:49:08;12.00;99.90
11083;DHT22;5595;50.186;8.468;2022-09-12T04:51:36;12.00;99.90
11083;DHT22;5595;50.186;8.468;2022-09-12T04:54:06;12.00;99.90
11083;DHT22;5595;50.186;8.468;2022-09-12T04:56:38;12.00;99.90
11083;DHT22;5595;50.186;8.468;2022-09-12T04:59:05;12.00;99.90
11083;DHT22;5595;50.186;8.468;2022-09-12T05:01:33;11.90;99.90
11083;DHT22;5595;50.186;8.468;2022-09-12T05:04:01;11.90;99.90
11083;DHT22;5595;50.186;8.468;2022-09-12T05:06:29;12.00;99.90
11083;DHT22;5595;50.186;8.468;2022-09-12T05:08:58;12.00;99.90
11083;DHT22;5595;50.186;8.468;2022-09-12T05:11:28;12.00;99.90
11083;DHT22;5595;50.186;8.468;2022-09-12T05:13:56;12.00;99.90
11083;DHT22;5595;50.186;8.468;2022-09-12T05:16:24;12.00;99.90
11083;DHT22;5595;50.186;8.468;2022-09-12T05:18:51;12.00;99.90
11083;DHT22;5595;50.186;8.468;2022-09-12T05:21:20;12.10;99.90
11083;DHT22;5595;50.186;8.468;2022-09-12T05:23:50;12.10;99.90
11083;DHT22;5595;50.186;8.468;2022-09-12T05:26:18;12.20;99.90
11083;DHT22;5595;50.186;8.468;2022-09-12T05:28:46;12.20;99.90
11083;DHT22;5595;50.186;8.468;2022-09-12T05:31:17;12.20;99.90
11083;DHT22;5595;50.186;8.468;2022-09-12T05:33:47;12.30;99.90
11083;DHT22;5595;50.186;8.468;2022-09-12T05:36:16;12.40;99.90
11083;DHT22;5595;50.186;8.468;2022-09-12T05:38:43;12.40;99.90
11083;DHT22;5595;50.186;8.468;2022-09-12T05:41:12;12.40;99.90
11083;DHT22;5595;50.186;8.468;2022-09-12T05:43:40;12.50;99.90
11083;DHT22;5595;50.186;8.468;2022-09-12T05:46:10;12.50;99.90
11083;DHT22;5595;50.186;8.468;2022-09-12T05:48:41;12.50;99.90
11083;DHT22;5595;50.186;8.468;2022-09-12T05:51:10;12.60;99.90
11083;DHT22;5595;50.186;8.468;2022-09-12T05:53:38;12.60;99.90
11083;DHT22;5595;50.186;8.468;2022-09-12T05:56:08;12.60;99.90
11083;DHT22;5595;50.186;8.468;2022-09-12T05:58:37;12.70;99.90
11083;DHT22;5595;50.186;8.468;2022-09-12T06:01:06;12.70;99.90
11083;DHT22;5595;50.186;8.468;2022-09-12T06:03:34;12.70;99.90
11083;DHT22;5595;50.186;8.468;2022-09-12T06:06:04;12.70;99.90
11083;DHT22;5595;50.186;8.468;2022-09-12T06:08:32;12.80;99.90
11083;DHT22;5595;50.186;8.468;2022-09-12T06:11:00;12.90;99.90
11083;DHT22;5595;50.186;8.468;2022-09-12T06:13:27;12.90;99.90
11083;DHT22;5595;50.186;8.468;2022-09-12T06:15:54;13.10;99.90
11083;DHT22;5595;50.186;8.468;2022-09-12T06:18:21;13.30;99.90
11083;DHT22;5595;50.186;8.468;2022-09-12T06:20:48;13.50;99.90
11083;DHT22;5595;50.186;8.468;2022-09-12T06:23:16;13.60;99.90
11083;DHT22;5595;50.186;8.468;2022-09-12T06:25:46;13.70;99.90
11083;DHT22;5595;50.186;8.468;2022-09-12T06:28:14;13.90;99.90
11083;DHT22;5595;50.186;8.468;2022-09-12T06:30:41;14.00;99.90
11083;DHT22;5595;50.186;8.468;2022-09-12T06:33:08;14.20;99.90
11083;DHT22;5595;50.186;8.468;2022-09-12T06:35:35;14.30;99.90
11083;DHT22;5595;50.186;8.468;2022-09-12T06:38:03;14.40;99.90
11083;DHT22;5595;50.186;8.468;2022-09-12T06:40:32;14.60;99.90
11083;DHT22;5595;50.186;8.468;2022-09-12T06:42:58;14.70;99.90
11083;DHT22;5595;50.186;8.468;2022-09-12T06:45:25;14.80;99.90
11083;DHT22;5595;50.186;8.468;2022-09-12T06:47:54;14.90;99.90
11083;DHT22;5595;50.186;8.468;2022-09-12T06:50:21;15.20;99.90
11083;DHT22;5595;50.186;8.468;2022-09-12T06:52:48;15.40;99.90
11083;DHT22;5595;50.186;8.468;2022-09-12T06:55:15;15.60;99.90
11083;DHT22;5595;50.186;8.468;2022-09-12T06:57:43;15.80;99.90
11083;DHT22;5595;50.186;8.468;2022-09-12T07:00:12;16.00;99.90
11083;DHT22;5595;50.186;8.468;2022-09-12T07:02:39;16.20;99.90
11083;DHT22;5595;50.186;8.468;2022-09-12T07:05:06;16.30;99.90
11083;DHT22;5595;50.186;8.468;2022-09-12T07:07:35;16.50;99.90
11083;DHT22;5595;50.186;8.468;2022-09-12T07:10:03;16.60;99.90
11083;DHT22;5595;50.186;8.468;2022-09-12T07:12:31;16.80;99.90
11083;DHT22;5595;50.186;8.468;2022-09-12T07:14:59;16.90;99.90
11083;DHT22;5595;50.186;8.468;2022-09-12T07:17:26;17.10;99.90
11083;DHT22;5595;50.186;8.468;2022-09-12T07:19:54;17.30;99.90
11083;DHT22;5595;50.186;8.468;2022-09-12T07:22:24;17.40;99.90
11083;DHT22;5595;50.186;8.468;2022-09-12T07:24:51;17.50;99.90
11083;DHT22;5595;50.186;8.468;2022-09-12T07:27:20;17.60;99.90
11083;DHT22;5595;50.186;8.468;2022-09-12T07:29:47;17.70;99.90
11083;DHT22;5595;50.186;8.468;2022-09-12T07:32:15;17.80;99.90
11083;DHT22;5595;50.186;8.468;2022-09-12T07:34:43;17.90;99.90
11083;DHT22;5595;50.186;8.468;2022-09-12T07:37:11;18.00;99.90
11083;DHT22;5595;50.186;8.468;2022-09-12T07:39:38;18.10;99.90
11083;DHT22;5595;50.186;8.468;2022-09-12T07:42:05;18.20;99.90
11083;DHT22;5595;50.186;8.468;2022-09-12T07:44:32;18.30;99.90
11083;DHT22;5595;50.186;8.468;2022-09-12T07:47:00;18.40;99.90
11083;DHT22;5595;50.186;8.468;2022-09-12T07:49:29;18.40;99.90
11083;DHT22;5595;50.186;8.468;2022-09-12T07:51:56;18.40;99.90
11083;DHT22;5595;50.186;8.468;2022-09-12T07:54:24;18.50;99.90
11083;DHT22;5595;50.186;8.468;2022-09-12T07:56:52;18.50;99.90
11083;DHT22;5595;50.186;8.468;2022-09-12T07:59:20;18.70;99.90
11083;DHT22;5595;50.186;8.468;2022-09-12T08:01:48;18.80;99.90
11083;DHT22;5595;50.186;8.468;2022-09-12T08:04:18;18.90;99.90
11083;DHT22;5595;50.186;8.468;2022-09-12T08:06:49;19.00;99.90
11083;DHT22;5595;50.186;8.468;2022-09-12T08:09:17;19.00;99.90
11083;DHT22;5595;50.186;8.468;2022-09-12T08:11:45;19.10;99.90
11083;DHT22;5595;50.186;8.468;2022-09-12T08:14:13;19.10;99.90
11083;DHT22;5595;50.186;8.468;2022-09-12T08:16:43;19.20;99.90
11083;DHT22;5595;50.186;8.468;2022-09-12T08:19:11;19.30;99.90
11083;DHT22;5595;50.186;8.468;2022-09-12T08:21:39;19.30;99.90
11083;DHT22;5595;50.186;8.468;2022-09-12T08:24:11;19.40;99.90
11083;DHT22;5595;50.186;8.468;2022-09-12T08:26:39;19.40;99.90
11083;DHT22;5595;50.186;8.468;2022-09-12T08:29:08;19.40;99.90
11083;DHT22;5595;50.186;8.468;2022-09-12T08:31:36;19.40;99.90
11083;DHT22;5595;50.186;8.468;2022-09-12T08:34:04;19.40;99.90
11083;DHT22;5595;50.186;8.468;2022-09-12T08:36:34;19.50;99.90
11083;DHT22;5595;50.186;8.468;2022-09-12T08:39:04;19.60;99.90
11083;DHT22;5595;50.186;8.468;2022-09-12T08:41:38;19.70;99.90
11083;DHT22;5595;50.186;8.468;2022-09-12T08:47:14;19.90;99.90
11083;DHT22;5595;50.186;8.468;2022-09-12T08:49:49;20.10;99.90
11083;DHT22;5595;50.186;8.468;2022-09-12T08:52:22;20.10;99.90
11083;DHT22;5595;50.186;8.468;2022-09-12T08:54:50;20.30;99.90
11083;DHT22;5595;50.186;8.468;2022-09-12T08:57:18;20.40;99.90
11083;DHT22;5595;50.186;8.468;2022-09-12T08:59:46;20.40;99.90
11083;DHT22;5595;50.186;8.468;2022-09-12T09:05:17;20.50;99.90
11083;DHT22;5595;50.186;8.468;2022-09-12T09:08:12;20.70;99.90
11083;DHT22;5595;50.186;8.468;2022-09-12T09:10:47;20.80;99.90
11083;DHT22;5595;50.186;8.468;2022-09-12T09:13:36;20.90;99.90
11083;DHT22;5595;50.186;8.468;2022-09-12T09:16:30;21.00;99.90
11083;DHT22;5595;50.186;8.468;2022-09-12T09:19:00;21.00;99.90
11083;DHT22;5595;50.186;8.468;2022-09-12T09:21:31;21.10;99.90
11083;DHT22;5595;50.186;8.468;2022-09-12T09:24:03;21.20;99.90
11083;DHT22;5595;50.186;8.468;2022-09-12T09:26:40;21.20;99.90
11083;DHT22;5595;50.186;8.468;2022-09-12T09:29:16;21.30;99.90
11083;DHT22;5595;50.186;8.468;2022-09-12T09:31:46;21.30;99.90
11083;DHT22;5595;50.186;8.468;2022-09-12T09:34:18;21.30;99.90
11083;DHT22;5595;50.186;8.468;2022-09-12T09:36:50;21.20;99.90
11083;DHT22;5595;50.186;8.468;2022-09-12T09:39:26;21.20;99.90
11083;DHT22;5595;50.186;8.468;2022-09-12T09:42:09;21.10;99.90
11083;DHT22;5595;50.186;8.468;2022-09-12T09:44:39;21.10;99.90
11083;DHT22;5595;50.186;8.468;2022-09-12T09:47:10;21.10;99.90
11083;DHT22;5595;50.186;8.468;2022-09-12T09:49:38;21.20;99.90
11083;DHT22;5595;50.186;8.468;2022-09-12T09:52:06;21.20;99.90
11083;DHT22;5595;50.186;8.468;2022-09-12T09:54:36;21.30;99.90
11083;DHT22;5595;50.186;8.468;2022-09-12T09:57:40;21.40;99.90
11083;DHT22;5595;50.186;8.468;2022-09-12T10:00:36;21.50;99.90
11083;DHT22;5595;50.186;8.468;2022-09-12T10:03:26;21.50;99.90
11083;DHT22;5595;50.186;8.468;2022-09-12T10:05:57;21.60;99.90
11083;DHT22;5595;50.186;8.468;2022-09-12T10:08:26;21.60;99.90
11083;DHT22;5595;50.186;8.468;2022-09-12T10:11:00;21.70;99.90
11083;DHT22;5595;50.186;8.468;2022-09-12T10:13:36;21.60;99.90
11083;DHT22;5595;50.186;8.468;2022-09-12T10:16:15;21.70;99.90
11083;DHT22;5595;50.186;8.468;2022-09-12T10:18:44;21.70;99.90
11083;DHT22;5595;50.186;8.468;2022-09-12T10:21:24;21.70;99.90
11083;DHT22;5595;50.186;8.468;2022-09-12T10:24:02;21.80;99.90
11083;DHT22;5595;50.186;8.468;2022-09-12T10:26:33;22.00;99.90
11083;DHT22;5595;50.186;8.468;2022-09-12T10:29:08;22.20;99.90
11083;DHT22;5595;50.186;8.468;2022-09-12T10:31:45;22.20;99.90
11083;DHT22;5595;50.186;8.468;2022-09-12T10:34:26;22.10;99.90
11083;DHT22;5595;50.186;8.468;2022-09-12T10:37:00;22.10;99.90
11083;DHT22;5595;50.186;8.468;2022-09-12T10:39:28;22.10;99.90
11083;DHT22;5595;50.186;8.468;2022-09-12T10:41:57;22.10;99.90
11083;DHT22;5595;50.186;8.468;2022-09-12T10:44:26;22.20;99.90
11083;DHT22;5595;50.186;8.468;2022-09-12T10:46:56;22.30;99.90
11083;DHT22;5595;50.186;8.468;2022-09-12T10:49:26;22.30;99.90
11083;DHT22;5595;50.186;8.468;2022-09-12T10:51:56;22.40;99.90
11083;DHT22;5595;50.186;8.468;2022-09-12T10:54:26;22.40;99.90
11083;DHT22;5595;50.186;8.468;2022-09-12T11:00:02;22.40;99.90
11083;DHT22;5595;50.186;8.468;2022-09-12T11:02:45;22.40;99.90
11083;DHT22;5595;50.186;8.468;2022-09-12T11:05:17;22.50;99.90
11083;DHT22;5595;50.186;8.468;2022-09-12T11:07:49;22.60;99.90
11083;DHT22;5595;50.186;8.468;2022-09-12T11:10:29;22.70;99.90
11083;DHT22;5595;50.186;8.468;2022-09-12T11:13:13;22.80;99.90
11083;DHT22;5595;50.186;8.468;2022-09-12T11:15:53;22.90;99.90
11083;DHT22;5595;50.186;8.468;2022-09-12T11:18:36;22.90;99.90
11083;DHT22;5595;50.186;8.468;2022-09-12T11:21:29;22.90;99.90
11083;DHT22;5595;50.186;8.468;2022-09-12T11:27:03;22.70;99.90
11083;DHT22;5595;50.186;8.468;2022-09-12T11:29:46;22.80;99.90
11083;DHT22;5595;50.186;8.468;2022-09-12T11:32:34;22.70;99.90
11083;DHT22;5595;50.186;8.468;2022-09-12T11:35:17;22.60;99.90
11083;DHT22;5595;50.186;8.468;2022-09-12T11:38:02;22.60;99.90
11083;DHT22;5595;50.186;8.468;2022-09-12T11:40:37;22.60;99.90
11083;DHT22;5595;50.186;8.468;2022-09-12T11:43:15;22.50;99.90
11083;DHT22;5595;50.186;8.468;2022-09-12T11:45:46;22.50;99.90
11083;DHT22;5595;50.186;8.468;2022-09-12T11:48:21;22.50;99.90
11083;DHT22;5595;50.186;8.468;2022-09-12T11:50:51;22.50;99.90
11083;DHT22;5595;50.186;8.468;2022-09-12T11:53:23;22.50;99.90
11083;DHT22;5595;50.186;8.468;2022-09-12T11:55:55;22.50;99.90
11083;DHT22;5595;50.186;8.468;2022-09-12T11:58:26;22.50;99.90
11083;DHT22;5595;50.186;8.468;2022-09-12T12:00:56;22.60;99.90
11083;DHT22;5595;50.186;8.468;2022-09-12T12:03:30;22.60;99.90
11083;DHT22;5595;50.186;8.468;2022-09-12T12:06:04;22.60;99.90
11083;DHT22;5595;50.186;8.468;2022-09-12T12:08:38;22.70;99.90
11083;DHT22;5595;50.186;8.468;2022-09-12T12:11:07;22.70;99.90
11083;DHT22;5595;50.186;8.468;2022-09-12T12:13:37;22.70;99.90
11083;DHT22;5595;50.186;8.468;2022-09-12T12:16:06;22.80;99.90
11083;DHT22;5595;50.186;8.468;2022-09-12T12:18:37;22.90;99.90
11083;DHT22;5595;50.186;8.468;2022-09-12T12:21:20;23.00;99.90
11083;DHT22;5595;50.186;8.468;2022-09-12T12:24:09;23.00;99.90
11083;DHT22;5595;50.186;8.468;2022-09-12T12:26:54;23.00;99.90
11083;DHT22;5595;50.186;8.468;2022-09-12T12:29:39;23.10;99.90
11083;DHT22;5595;50.186;8.468;2022-09-12T12:32:23;23.20;99.90
11083;DHT22;5595;50.186;8.468;2022-09-12T12:37:55;23.40;99.90
11083;DHT22;5595;50.186;8.468;2022-09-12T12:40:27;23.40;99.90
11083;DHT22;5595;50.186;8.468;2022-09-12T12:43:03;23.40;99.90
11083;DHT22;5595;50.186;8.468;2022-09-12T12:46:05;23.40;99.90
11083;DHT22;5595;50.186;8.468;2022-09-12T12:48:49;23.30;99.90
11083;DHT22;5595;50.186;8.468;2022-09-12T12:51:28;23.40;99.90
11083;DHT22;5595;50.186;8.468;2022-09-12T12:53:58;23.30;99.90
11083;DHT22;5595;50.186;8.468;2022-09-12T12:56:38;23.20;99.90
11083;DHT22;5595;50.186;8.468;2022-09-12T12:59:14;23.30;99.90
11083;DHT22;5595;50.186;8.468;2022-09-12T13:01:48;23.50;99.90
11083;DHT22;5595;50.186;8.468;2022-09-12T13:04:17;23.40;99.90
11083;DHT22;5595;50.186;8.468;2022-09-12T13:06:53;23.40;99.90
11083;DHT22;5595;50.186;8.468;2022-09-12T13:09:26;23.50;99.90
11083;DHT22;5595;50.186;8.468;2022-09-12T13:11:59;23.50;99.90
11083;DHT22;5595;50.186;8.468;2022-09-12T13:14:36;23.60;99.90
11083;DHT22;5595;50.186;8.468;2022-09-12T13:17:15;23.70;99.90
11083;DHT22;5595;50.186;8.468;2022-09-12T13:19:45;23.80;99.90
11083;DHT22;5595;50.186;8.468;2022-09-12T13:22:12;23.80;99.90
11083;DHT22;5595;50.186;8.468;2022-09-12T13:24:43;23.80;99.70
11083;DHT22;5595;50.186;8.468;2022-09-12T13:27:17;23.70;99.40
11083;DHT22;5595;50.186;8.468;2022-09-12T13:29:44;23.60;99.50
11083;DHT22;5595;50.186;8.468;2022-09-12T13:32:11;23.60;99.00
11083;DHT22;5595;50.186;8.468;2022-09-12T13:34:55;23.60;98.70
11083;DHT22;5595;50.186;8.468;2022-09-12T13:37:42;23.70;98.80
11083;DHT22;5595;50.186;8.468;2022-09-12T13:40:35;23.80;98.30
11083;DHT22;5595;50.186;8.468;2022-09-12T13:43:12;23.90;98.20
11083;DHT22;5595;50.186;8.468;2022-09-12T13:45:42;24.00;98.30
11083;DHT22;5595;50.186;8.468;2022-09-12T13:48:13;24.00;97.80
11083;DHT22;5595;50.186;8.468;2022-09-12T13:50:50;24.00;97.90
11083;DHT22;5595;50.186;8.468;2022-09-12T13:53:23;24.00;97.50
11083;DHT22;5595;50.186;8.468;2022-09-12T13:55:55;24.00;97.20
11083;DHT22;5595;50.186;8.468;2022-09-12T13:58:24;24.00;97.20
11083;DHT22;5595;50.186;8.468;2022-09-12T14:01:06;24.00;97.10
11083;DHT22;5595;50.186;8.468;2022-09-12T14:03:39;23.90;96.80
11083;DHT22;5595;50.186;8.468;2022-09-12T14:06:23;23.90;97.00
11083;DHT22;5595;50.186;8.468;2022-09-12T14:08:53;23.60;97.00
11083;DHT22;5595;50.186;8.468;2022-09-12T14:11:26;23.50;97.30
11083;DHT22;5595;50.186;8.468;2022-09-12T14:13:54;23.50;97.50
11083;DHT22;5595;50.186;8.468;2022-09-12T14:16:22;23.50;98.20
11083;DHT22;5595;50.186;8.468;2022-09-12T14:18:53;23.50;97.20
11083;DHT22;5595;50.186;8.468;2022-09-12T14:21:31;23.50;97.00
11083;DHT22;5595;50.186;8.468;2022-09-12T14:24:00;23.50;96.40
11083;DHT22;5595;50.186;8.468;2022-09-12T14:26:33;23.50;96.70
11083;DHT22;5595;50.186;8.468;2022-09-12T14:29:03;23.40;96.60
11083;DHT22;5595;50.186;8.468;2022-09-12T14:31:31;23.30;96.90
11083;DHT22;5595;50.186;8.468;2022-09-12T14:34:09;23.30;96.60
11083;DHT22;5595;50.186;8.468;2022-09-12T14:36:41;23.20;96.50
11083;DHT22;5595;50.186;8.468;2022-09-12T14:39:18;23.10;96.30
11083;DHT22;5595;50.186;8.468;2022-09-12T14:41:48;23.00;96.50
11083;DHT22;5595;50.186;8.468;2022-09-12T14:44:17;23.00;96.60
11083;DHT22;5595;50.186;8.468;2022-09-12T14:46:45;23.00;96.90
11083;DHT22;5595;50.186;8.468;2022-09-12T14:49:16;23.00;96.70
11083;DHT22;5595;50.186;8.468;2022-09-12T14:51:52;23.00;96.50
11083;DHT22;5595;50.186;8.468;2022-09-12T14:54:39;23.00;96.20
11083;DHT22;5595;50.186;8.468;2022-09-12T14:57:31;22.90;96.40
11083;DHT22;5595;50.186;8.468;2022-09-12T15:00:15;22.80;96.30
11083;DHT22;5595;50.186;8.468;2022-09-12T15:02:45;22.80;96.60
11083;DHT22;5595;50.186;8.468;2022-09-12T15:05:24;22.70;96.50
11083;DHT22;5595;50.186;8.468;2022-09-12T15:07:57;22.70;96.70
11083;DHT22;5595;50.186;8.468;2022-09-12T15:10:26;22.70;96.80
11083;DHT22;5595;50.186;8.468;2022-09-12T15:13:18;22.70;96.70
11083;DHT22;5595;50.186;8.468;2022-09-12T15:15:48;22.70;96.60
11083;DHT22;5595;50.186;8.468;2022-09-12T15:18:17;22.60;96.50
11083;DHT22;5595;50.186;8.468;2022-09-12T15:20:46;22.60;96.50
11083;DHT22;5595;50.186;8.468;2022-09-12T15:23:18;22.50;96.50
11083;DHT22;5595;50.186;8.468;2022-09-12T15:25:46;22.50;96.70
11083;DHT22;5595;50.186;8.468;2022-09-12T15:28:19;22.40;96.90
11083;DHT22;5595;50.186;8.468;2022-09-12T15:30:48;22.40;97.00
11083;DHT22;5595;50.186;8.468;2022-09-12T15:33:16;22.30;97.10
11083;DHT22;5595;50.186;8.468;2022-09-12T15:35:44;22.30;97.20
11083;DHT22;5595;50.186;8.468;2022-09-12T15:38:11;22.20;97.20
11083;DHT22;5595;50.186;8.468;2022-09-12T15:40:38;22.10;97.40
11083;DHT22;5595;50.186;8.468;2022-09-12T15:43:05;22.10;97.50
11083;DHT22;5595;50.186;8.468;2022-09-12T15:45:34;22.10;97.40
11083;DHT22;5595;50.186;8.468;2022-09-12T15:48:04;22.00;97.40
11083;DHT22;5595;50.186;8.468;2022-09-12T15:50:31;22.00;97.70
11083;DHT22;5595;50.186;8.468;2022-09-12T15:52:59;21.90;97.50
11083;DHT22;5595;50.186;8.468;2022-09-12T15:55:29;21.90;98.00
11083;DHT22;5595;50.186;8.468;2022-09-12T15:57:56;21.90;97.90
11083;DHT22;5595;50.186;8.468;2022-09-12T16:00:24;21.80;97.80
11083;DHT22;5595;50.186;8.468;2022-09-12T16:02:53;21.80;97.50
11083;DHT22;5595;50.186;8.468;2022-09-12T16:05:22;21.80;97.30
11083;DHT22;5595;50.186;8.468;2022-09-12T16:07:51;21.70;97.40
11083;DHT22;5595;50.186;8.468;2022-09-12T16:10:20;21.70;97.30
11083;DHT22;5595;50.186;8.468;2022-09-12T16:12:48;21.70;97.50
11083;DHT22;5595;50.186;8.468;2022-09-12T16:15:18;21.60;97.40
11083;DHT22;5595;50.186;8.468;2022-09-12T16:17:46;21.60;97.40
11083;DHT22;5595;50.186;8.468;2022-09-12T16:20:15;21.60;97.60
11083;DHT22;5595;50.186;8.468;2022-09-12T16:22:43;21.50;97.70
11083;DHT22;5595;50.186;8.468;2022-09-12T16:25:10;21.50;97.80
11083;DHT22;5595;50.186;8.468;2022-09-12T16:27:37;21.50;97.60
11083;DHT22;5595;50.186;8.468;2022-09-12T16:30:05;21.40;97.50